createdAt,value
2018-07-12T00:01:55.214Z,24.83
2018-07-12T00:04:23.219Z,23.50
2018-07-12T00:06:51.168Z,27.13
2018-07-12T00:09:19.130Z,23.60
2018-07-12T00:11:47.362Z,26.90
2018-07-12T00:14:15.306Z,23.63
2018-07-12T00:16:43.291Z,25.03
2018-07-12T00:19:11.516Z,29.03
2018-07-12T00:21:39.725Z,25.60
2018-07-12T00:24:07.691Z,26.97
2018-07-12T00:26:35.661Z,29.13
2018-07-12T00:29:03.630Z,26.07
2018-07-12T00:31:31.869Z,25.17
2018-07-12T00:33:59.846Z,28.00
2018-07-12T00:36:27.801Z,32.47
2018-07-12T00:38:55.849Z,31.43
2018-07-12T00:41:24.101Z,26.70
2018-07-12T00:43:51.964Z,23.90
2018-07-12T00:46:19.934Z,23.60
2018-07-12T00:48:47.909Z,23.87
2018-07-12T00:51:15.865Z,26.63
2018-07-12T00:53:43.830Z,24.87
2018-07-12T00:56:11.777Z,19.80
2018-07-12T00:58:39.834Z,22.60
2018-07-12T01:01:07.801Z,43.80
2018-07-12T01:03:35.786Z,20.80
2018-07-12T01:06:03.773Z,23.90
2018-07-12T01:08:31.709Z,20.53
2018-07-12T01:10:59.853Z,25.10
2018-07-12T01:13:27.798Z,23.17
2018-07-12T01:15:55.760Z,28.53
2018-07-12T01:18:23.728Z,25.17
2018-07-12T01:20:52.217Z,30.27
2018-07-12T01:23:20.179Z,22.63
2018-07-12T01:25:48.560Z,25.60
2018-07-12T01:28:16.455Z,22.90
2018-07-12T01:30:44.439Z,26.80
2018-07-12T01:33:12.392Z,23.53
2018-07-12T01:35:40.409Z,29.93
2018-07-12T01:38:08.380Z,21.47
2018-07-12T01:40:36.378Z,26.40
2018-07-12T01:43:04.348Z,24.10
2018-07-12T01:45:32.332Z,22.20
2018-07-12T01:48:00.905Z,23.00
2018-07-12T01:50:28.869Z,23.13
2018-07-12T01:52:57.066Z,30.20
2018-07-12T01:55:25.145Z,26.27
2018-07-12T01:57:53.239Z,23.60
2018-07-12T02:00:21.162Z,25.50
2018-07-12T02:02:49.144Z,23.03
2018-07-12T02:05:17.151Z,26.20
2018-07-12T02:07:45.179Z,22.73
2018-07-12T02:10:13.175Z,33.03
2018-07-12T02:12:41.141Z,32.17
2018-07-12T02:15:09.107Z,24.40
2018-07-12T02:17:37.073Z,28.30
2018-07-12T02:20:05.069Z,26.47
2018-07-12T02:22:33.460Z,30.73
2018-07-12T02:25:01.346Z,26.07
2018-07-12T02:27:29.480Z,26.17
2018-07-12T02:29:57.398Z,27.23
2018-07-12T02:32:25.405Z,29.00
2018-07-12T02:34:53.383Z,25.70
2018-07-12T02:37:21.362Z,29.90
2018-07-12T02:39:49.343Z,31.23
2018-07-12T02:42:17.336Z,28.17
2018-07-12T02:44:45.291Z,26.67
2018-07-12T02:47:13.568Z,26.30
2018-07-12T02:49:41.526Z,31.60
2018-07-12T02:52:09.516Z,31.57
2018-07-12T02:54:37.544Z,26.70
2018-07-12T02:57:05.451Z,30.10
2018-07-12T02:59:33.422Z,29.93
2018-07-12T03:02:01.899Z,31.43
2018-07-12T03:04:30.450Z,37.73
2018-07-12T03:06:58.453Z,27.50
2018-07-12T03:09:26.406Z,30.03
2018-07-12T03:11:54.386Z,34.67
2018-07-12T03:14:23.276Z,40.37
2018-07-12T03:16:51.258Z,33.57
2018-07-12T03:19:19.226Z,29.97
2018-07-12T03:21:47.224Z,29.40
2018-07-12T03:24:15.175Z,35.20
2018-07-12T03:26:43.158Z,35.83
2018-07-12T03:29:11.395Z,32.67
2018-07-12T03:31:39.234Z,29.30
2018-07-12T03:34:07.591Z,37.60
2018-07-12T03:36:35.561Z,36.00
2018-07-12T03:39:04.496Z,33.33
2018-07-12T03:41:32.620Z,36.20
2018-07-12T03:44:00.594Z,49.60
2018-07-12T03:46:28.577Z,35.00
2018-07-12T03:48:56.559Z,50.63
2018-07-12T03:51:24.521Z,35.93
2018-07-12T03:53:52.495Z,33.20
2018-07-12T03:56:20.461Z,41.23
2018-07-12T03:58:48.448Z,38.63
2018-07-12T04:01:16.407Z,41.83
2018-07-12T04:03:44.410Z,33.97
2018-07-12T04:06:12.395Z,42.40
2018-07-12T04:08:40.361Z,32.83
2018-07-12T04:11:08.330Z,36.23
2018-07-12T04:13:36.552Z,34.33
2018-07-12T04:16:04.871Z,35.77
2018-07-12T04:18:33.081Z,31.30
2018-07-12T04:21:00.914Z,33.07
2018-07-12T04:23:28.888Z,38.50
2018-07-12T04:25:56.860Z,37.13
2018-07-12T04:28:24.813Z,39.10
2018-07-12T04:30:52.819Z,38.70
2018-07-12T04:33:20.994Z,31.53
2018-07-12T04:35:48.854Z,44.73
2018-07-12T04:38:16.827Z,35.63
2018-07-12T04:40:44.792Z,36.70
2018-07-12T04:43:12.775Z,35.47
2018-07-12T04:45:40.765Z,37.00
2018-07-12T04:48:08.778Z,37.00
2018-07-12T04:50:36.762Z,35.50
2018-07-12T04:53:04.740Z,28.67
2018-07-12T04:55:32.698Z,33.77
2018-07-12T04:58:00.657Z,40.50
2018-07-12T05:00:28.831Z,33.40
2018-07-12T05:02:57.022Z,32.87
2018-07-12T05:05:24.878Z,30.23
2018-07-12T05:07:52.903Z,32.80
2018-07-12T05:10:20.877Z,35.37
2018-07-12T05:12:48.841Z,24.83
2018-07-12T05:15:17.095Z,36.63
2018-07-12T05:17:44.947Z,29.63
2018-07-12T05:20:13.117Z,23.27
2018-07-12T05:22:41.115Z,27.93
2018-07-12T05:25:09.061Z,28.43
2018-07-12T05:27:37.158Z,28.77
2018-07-12T05:30:05.260Z,29.13
2018-07-12T05:32:33.213Z,33.93
2018-07-12T05:35:01.182Z,24.00
2018-07-12T05:37:30.153Z,35.20
2018-07-12T05:39:59.168Z,24.20
2018-07-12T05:42:28.199Z,31.27
2018-07-12T05:44:57.197Z,26.53
2018-07-12T05:47:26.191Z,24.80
2018-07-12T05:49:55.142Z,22.07
2018-07-12T05:52:24.187Z,24.80
2018-07-12T05:54:53.205Z,23.07
2018-07-12T05:57:22.205Z,27.30
2018-07-12T05:59:50.960Z,27.20
2018-07-12T06:02:21.667Z,30.47
2018-07-12T06:04:50.932Z,26.47
2018-07-12T06:07:25.506Z,29.27
2018-07-12T06:09:54.473Z,23.70
2018-07-12T06:12:23.493Z,26.87
2018-07-12T06:14:52.452Z,31.53
2018-07-12T06:17:21.497Z,29.63
2018-07-12T06:19:50.227Z,20.80
2018-07-12T06:22:19.123Z,22.73
2018-07-12T06:24:48.206Z,27.77
2018-07-12T06:27:17.146Z,28.73
2018-07-12T06:29:46.103Z,35.87
2018-07-12T06:32:15.066Z,24.10
2018-07-12T06:34:44.113Z,28.40
2018-07-12T06:37:13.089Z,26.43
2018-07-12T06:39:42.030Z,26.80
2018-07-12T06:42:11.184Z,25.37
2018-07-12T06:44:40.183Z,22.20
2018-07-12T06:47:09.000Z,20.07
2018-07-12T06:49:38.105Z,19.93
2018-07-12T06:52:07.098Z,28.30
2018-07-12T06:54:36.038Z,19.50
2018-07-12T06:57:04.985Z,22.07
2018-07-12T06:59:33.933Z,21.37
2018-07-12T07:02:02.902Z,22.57
2018-07-12T07:04:31.876Z,20.17
2018-07-12T07:07:01.119Z,23.37
2018-07-12T07:09:29.848Z,28.20
2018-07-12T07:11:58.852Z,21.60
2018-07-12T07:14:27.917Z,17.70
2018-07-12T07:16:56.967Z,18.80
2018-07-12T07:19:25.971Z,21.17
2018-07-12T07:21:54.872Z,22.30
2018-07-12T07:24:23.883Z,21.13
2018-07-12T07:26:52.969Z,20.27
2018-07-12T07:29:22.041Z,20.40
2018-07-12T07:31:50.830Z,22.50
2018-07-12T07:34:19.689Z,23.60
2018-07-12T07:36:48.680Z,23.90
2018-07-12T07:39:17.873Z,27.30
2018-07-12T07:41:46.922Z,25.93
2018-07-12T07:44:15.961Z,22.00
2018-07-12T07:46:44.981Z,34.33
2018-07-12T07:49:13.977Z,25.57
2018-07-12T07:51:43.040Z,30.47
2018-07-12T07:54:13.101Z,23.30
2018-07-12T07:56:41.941Z,24.73
2018-07-12T07:59:10.818Z,24.97
2018-07-12T08:01:39.840Z,26.33
2018-07-12T08:04:08.901Z,26.63
2018-07-12T08:06:37.892Z,29.17
2018-07-12T08:09:06.940Z,31.87
2018-07-12T08:11:35.910Z,30.53
2018-07-12T08:14:04.664Z,34.50
2018-07-12T08:16:33.501Z,29.63
2018-07-12T08:19:02.702Z,35.77
2018-07-12T08:21:31.662Z,30.00
2018-07-12T08:24:00.614Z,31.43
2018-07-12T08:26:29.586Z,29.43
2018-07-12T08:28:58.601Z,37.03
2018-07-12T08:31:27.655Z,28.20
2018-07-12T08:33:56.723Z,39.13
2018-07-12T08:36:25.859Z,30.60
2018-07-12T08:38:54.911Z,37.07
2018-07-12T08:41:23.962Z,31.43
2018-07-12T08:43:53.094Z,33.57
2018-07-12T08:46:22.148Z,36.87
2018-07-12T08:48:51.112Z,35.10
2018-07-12T08:51:20.061Z,28.97
2018-07-12T08:53:49.338Z,28.27
2018-07-12T08:56:18.461Z,25.73
2018-07-12T08:58:47.433Z,28.90
2018-07-12T09:01:16.410Z,28.20
2018-07-12T09:03:45.412Z,29.10
2018-07-12T09:06:14.435Z,27.50
2018-07-12T09:08:43.405Z,29.43
2018-07-12T09:11:12.394Z,27.70
2018-07-12T09:13:41.281Z,31.03
2018-07-12T09:16:10.136Z,29.57
2018-07-12T09:18:39.113Z,29.20
2018-07-12T09:21:08.175Z,28.00
2018-07-12T09:23:37.223Z,28.63
2018-07-12T09:26:06.249Z,26.13
2018-07-12T09:28:35.457Z,30.70
2018-07-12T09:31:04.441Z,28.87
2018-07-12T09:33:33.391Z,24.90
2018-07-12T09:36:02.344Z,27.30
2018-07-12T09:38:45.198Z,27.43
2018-07-12T09:41:14.254Z,26.33
2018-07-12T09:43:44.070Z,25.67
2018-07-12T09:46:13.202Z,26.90
2018-07-12T09:48:43.368Z,22.70
2018-07-12T09:51:12.825Z,22.50
2018-07-12T09:53:42.962Z,23.17
2018-07-12T09:56:12.470Z,25.53
2018-07-12T09:58:41.742Z,21.13
2018-07-12T10:01:16.323Z,21.03
2018-07-12T10:03:45.998Z,21.47
2018-07-12T10:06:20.318Z,23.20
2018-07-12T10:08:54.788Z,22.73
2018-07-12T10:11:29.404Z,27.33
2018-07-12T10:14:02.685Z,24.80
2018-07-12T10:16:37.292Z,22.43
2018-07-12T10:19:06.245Z,24.63
2018-07-12T10:21:35.250Z,20.97
2018-07-12T10:24:04.257Z,21.20
2018-07-12T10:26:33.204Z,20.77
2018-07-12T10:29:02.218Z,22.30
2018-07-12T10:31:31.267Z,26.17
2018-07-12T10:34:00.293Z,19.73
2018-07-12T10:36:29.313Z,20.07
2018-07-12T10:38:58.306Z,19.47
2018-07-12T10:41:27.277Z,20.70
2018-07-12T10:43:56.261Z,17.67
2018-07-12T10:46:25.316Z,21.80
2018-07-12T10:48:54.339Z,24.27
2018-07-12T10:51:23.318Z,15.40
2018-07-12T10:53:52.341Z,17.07
2018-07-12T10:56:21.334Z,19.73
2018-07-12T10:58:50.500Z,14.10
2018-07-12T11:01:19.699Z,18.73
2018-07-12T11:03:48.657Z,20.47
2018-07-12T11:06:17.684Z,20.33
2018-07-12T11:08:46.692Z,23.80
2018-07-12T11:11:15.705Z,23.30
2018-07-12T11:13:52.049Z,15.03
2018-07-12T11:16:21.096Z,15.70
2018-07-12T11:18:50.162Z,12.20
2018-07-12T11:21:19.126Z,14.37
2018-07-12T11:23:48.090Z,15.50
2018-07-12T11:26:17.189Z,19.07
2018-07-12T11:28:46.221Z,18.57
2018-07-12T11:31:15.216Z,19.83
2018-07-12T11:33:46.440Z,18.33
2018-07-12T11:36:15.449Z,16.97
2018-07-12T11:38:44.983Z,16.40
2018-07-12T11:41:14.593Z,16.80
2018-07-12T11:43:43.827Z,14.37
2018-07-12T11:46:14.050Z,11.30
2018-07-12T11:48:43.653Z,15.90
2018-07-12T11:51:12.730Z,13.23
2018-07-12T11:53:41.832Z,20.70
2018-07-12T11:56:10.936Z,8.80
2018-07-12T11:58:39.971Z,16.70
2018-07-12T12:01:08.740Z,14.97
2018-07-12T12:03:37.566Z,18.47
2018-07-12T12:06:06.857Z,16.30
2018-07-12T12:08:35.905Z,14.10
2018-07-12T12:11:04.910Z,13.57
2018-07-12T12:13:34.132Z,14.03
2018-07-12T12:16:03.198Z,16.00
2018-07-12T12:18:32.144Z,10.40
2018-07-12T12:21:01.307Z,12.87
2018-07-12T12:23:30.662Z,10.60
2018-07-12T12:26:00.250Z,13.43
2018-07-12T12:28:29.545Z,11.70
2018-07-12T12:30:58.838Z,10.50
2018-07-12T12:33:28.065Z,11.50
2018-07-12T12:35:57.193Z,10.10
2018-07-12T12:38:26.165Z,8.60
2018-07-12T12:40:55.205Z,13.27
2018-07-12T12:43:24.225Z,9.37
2018-07-12T12:45:53.301Z,6.90
2018-07-12T12:48:22.354Z,12.87
2018-07-12T12:50:51.356Z,5.60
2018-07-12T12:53:20.317Z,6.70
2018-07-12T12:55:49.281Z,8.43
2018-07-12T12:58:18.790Z,6.93
2018-07-12T13:00:47.885Z,9.80
2018-07-12T13:03:16.826Z,8.57
2018-07-12T13:05:45.795Z,7.80
2018-07-12T13:08:14.762Z,10.50
2018-07-12T13:10:43.741Z,8.97
2018-07-12T13:13:12.715Z,11.23
2018-07-12T13:15:41.759Z,7.17
2018-07-12T13:18:10.949Z,7.03
2018-07-12T13:20:39.915Z,5.80
2018-07-12T13:23:08.938Z,4.83
2018-07-12T13:25:37.970Z,6.07
2018-07-12T13:28:06.893Z,7.07
2018-07-12T13:30:35.817Z,6.43
2018-07-12T13:33:04.780Z,6.93
2018-07-12T13:35:33.794Z,4.37
2018-07-12T13:38:02.726Z,6.70
2018-07-12T13:40:31.762Z,6.40
2018-07-12T13:43:00.922Z,5.60
2018-07-12T13:45:30.254Z,8.23
2018-07-12T13:47:59.194Z,7.60
2018-07-12T13:50:28.477Z,7.60
2018-07-12T13:52:57.212Z,6.50
2018-07-12T13:55:26.088Z,7.73
2018-07-12T13:57:55.624Z,6.90
2018-07-12T14:00:24.597Z,7.07
2018-07-12T14:02:53.614Z,7.57
2018-07-12T14:05:22.590Z,6.43
2018-07-12T14:07:51.585Z,6.50
2018-07-12T14:10:20.767Z,4.40
2018-07-12T14:12:49.681Z,9.33
2018-07-12T14:15:18.665Z,6.50
2018-07-12T14:17:47.655Z,19.93
2018-07-12T14:20:16.636Z,5.50
2018-07-12T14:22:45.657Z,8.33
2018-07-12T14:25:14.755Z,7.63
2018-07-12T14:27:43.837Z,9.30
2018-07-12T14:30:12.787Z,8.83
2018-07-12T14:32:41.777Z,5.60
2018-07-12T14:35:10.778Z,6.27
2018-07-12T14:37:39.783Z,11.40
2018-07-12T14:40:08.942Z,5.03
2018-07-12T14:42:37.899Z,7.00
2018-07-12T14:45:06.902Z,5.33
2018-07-12T14:47:35.932Z,4.43
2018-07-12T14:50:05.603Z,7.93
2018-07-12T14:52:34.607Z,6.47
2018-07-12T14:55:04.012Z,5.80
2018-07-12T14:57:33.061Z,6.30
2018-07-12T15:00:02.085Z,7.20
2018-07-12T15:02:30.887Z,6.90
2018-07-12T15:04:59.679Z,5.00
2018-07-12T15:07:28.697Z,13.67
2018-07-12T15:09:58.369Z,12.33
2018-07-12T15:12:27.321Z,9.13
2018-07-12T15:14:56.254Z,4.30
2018-07-12T15:17:25.803Z,6.70
2018-07-12T15:19:54.865Z,9.40
2018-07-12T15:22:23.865Z,11.30
2018-07-12T15:24:52.997Z,3.90
2018-07-12T15:27:21.926Z,5.77
2018-07-12T15:29:50.844Z,9.23
2018-07-12T15:32:19.796Z,4.83
2018-07-12T15:34:48.829Z,5.80
2018-07-12T15:37:17.874Z,6.70
2018-07-12T15:39:46.866Z,5.83
2018-07-12T15:42:15.579Z,7.57
2018-07-12T15:44:44.794Z,4.90
2018-07-12T15:47:13.809Z,9.03
2018-07-12T15:49:42.609Z,7.67
2018-07-12T15:52:11.467Z,8.53
2018-07-12T15:54:40.463Z,10.10
2018-07-12T15:57:10.209Z,12.60
2018-07-12T15:59:40.228Z,17.63
2018-07-12T16:02:10.308Z,17.33
2018-07-12T16:04:39.417Z,15.37
2018-07-12T16:07:08.373Z,14.70
2018-07-12T16:09:37.415Z,12.07
2018-07-12T16:12:07.018Z,13.13
2018-07-12T16:14:36.690Z,11.90
2018-07-12T16:17:06.324Z,13.43
2018-07-12T16:19:35.325Z,10.93
2018-07-12T16:22:04.670Z,16.20
2018-07-12T16:24:33.609Z,19.80
2018-07-12T16:27:02.641Z,18.47
2018-07-12T16:29:31.608Z,24.50
2018-07-12T16:32:00.566Z,20.30
2018-07-12T16:34:29.561Z,15.90
2018-07-12T16:36:58.524Z,14.47
2018-07-12T16:39:27.562Z,15.30
2018-07-12T16:41:56.689Z,24.13
2018-07-12T16:44:25.625Z,18.13
2018-07-12T16:46:54.653Z,21.57
2018-07-12T16:49:23.738Z,14.73
2018-07-12T16:51:52.905Z,23.83
2018-07-12T16:54:22.024Z,16.43
2018-07-12T16:56:51.264Z,14.87
2018-07-12T16:59:20.241Z,14.30
2018-07-12T17:01:49.563Z,15.43
2018-07-12T17:04:18.925Z,12.30
2018-07-12T17:06:47.744Z,15.00
2018-07-12T17:09:17.198Z,21.00
2018-07-12T17:11:47.252Z,12.77
2018-07-12T17:14:16.068Z,19.43
2018-07-12T17:16:45.098Z,15.40
2018-07-12T17:19:14.173Z,20.33
2018-07-12T17:21:43.173Z,15.00
2018-07-12T17:24:12.161Z,15.17
2018-07-12T17:26:40.936Z,18.23
2018-07-12T17:29:09.828Z,12.77
2018-07-12T17:31:38.827Z,16.17
2018-07-12T17:34:07.808Z,15.23
2018-07-12T17:36:36.814Z,13.40
2018-07-12T17:39:06.782Z,14.57
2018-07-12T17:41:35.796Z,14.87
2018-07-12T17:44:04.953Z,15.57
2018-07-12T17:46:35.306Z,13.53
2018-07-12T17:49:05.085Z,15.70
2018-07-12T17:51:34.122Z,12.90
2018-07-12T17:54:03.480Z,13.40
2018-07-12T17:56:33.136Z,13.60
2018-07-12T17:59:02.180Z,11.73
2018-07-12T18:01:31.133Z,8.03
2018-07-12T18:04:00.214Z,13.67
2018-07-12T18:06:29.170Z,7.83
2018-07-12T18:08:58.204Z,9.10
2018-07-12T18:11:27.171Z,8.77
2018-07-12T18:13:56.229Z,11.00
2018-07-12T18:16:25.411Z,9.30
2018-07-12T18:18:54.439Z,9.97
2018-07-12T18:21:23.511Z,9.33
2018-07-12T18:23:52.545Z,11.90
2018-07-12T18:26:21.542Z,8.90
2018-07-12T18:28:50.505Z,8.87
2018-07-12T18:31:48.469Z,8.27
2018-07-12T18:34:34.795Z,7.70
2018-07-12T18:37:04.178Z,8.00
2018-07-12T18:39:33.199Z,7.87
2018-07-12T18:42:02.185Z,7.73
2018-07-12T18:44:31.139Z,10.23
2018-07-12T18:47:00.082Z,7.87
2018-07-12T18:49:29.016Z,11.23
2018-07-12T18:51:57.961Z,7.47
2018-07-12T18:54:26.876Z,14.20
2018-07-12T18:56:55.710Z,10.63
2018-07-12T18:59:24.684Z,11.50
2018-07-12T19:01:53.715Z,7.17
2018-07-12T19:04:22.652Z,11.30
2018-07-12T19:06:51.677Z,9.17
2018-07-12T19:09:20.641Z,7.80
2018-07-12T19:11:49.767Z,9.07
2018-07-12T19:14:18.707Z,10.97
2018-07-12T19:16:47.684Z,10.50
2018-07-12T19:19:16.994Z,7.80
2018-07-12T19:21:45.925Z,7.30
2018-07-12T19:24:14.886Z,9.10
2018-07-12T19:26:43.826Z,12.53
2018-07-12T19:29:13.027Z,12.87
2018-07-12T19:31:41.988Z,7.90
2018-07-12T19:34:10.955Z,8.10
2018-07-12T19:36:39.902Z,10.50
2018-07-12T19:39:09.352Z,8.07
2018-07-12T19:41:38.331Z,11.60
2018-07-12T19:44:07.653Z,10.63
2018-07-12T19:46:37.056Z,10.90
2018-07-12T19:49:06.164Z,9.23
2018-07-12T19:51:35.170Z,11.33
2018-07-12T19:54:04.158Z,10.50
2018-07-12T19:56:33.126Z,13.13
2018-07-12T19:59:02.218Z,10.50
2018-07-12T20:01:31.180Z,11.37
2018-07-12T20:04:00.156Z,10.30
2018-07-12T20:06:29.108Z,9.17
2018-07-12T20:08:58.050Z,11.40
2018-07-12T20:11:26.786Z,12.90
2018-07-12T20:13:55.707Z,12.60
2018-07-12T20:16:24.648Z,9.93
2018-07-12T20:18:53.623Z,12.50
2018-07-12T20:21:23.000Z,14.20
2018-07-12T20:23:51.952Z,11.50
2018-07-12T20:26:21.069Z,16.07
2018-07-12T20:28:49.963Z,19.90
2018-07-12T20:31:18.979Z,16.07
2018-07-12T20:33:47.946Z,19.30
2018-07-12T20:36:16.909Z,19.40
2018-07-12T20:38:45.877Z,17.67
2018-07-12T20:41:14.920Z,12.60
2018-07-12T20:43:43.911Z,14.80
2018-07-12T20:46:12.878Z,18.60
2018-07-12T20:48:41.813Z,14.40
2018-07-12T20:51:10.774Z,12.00
2018-07-12T20:53:39.725Z,14.00
2018-07-12T20:56:08.683Z,14.60
2018-07-12T20:58:37.654Z,19.77
2018-07-12T21:01:06.898Z,16.63
2018-07-12T21:03:35.833Z,22.70
2018-07-12T21:06:05.204Z,14.67
2018-07-12T21:08:34.186Z,12.20
2018-07-12T21:11:03.150Z,13.53
2018-07-12T21:13:32.513Z,11.13
2018-07-12T21:16:01.492Z,13.00
2018-07-12T21:18:30.517Z,12.70
2018-07-12T21:20:59.489Z,18.33
2018-07-12T21:23:28.440Z,12.60
2018-07-12T21:25:57.416Z,20.90
2018-07-12T21:28:26.354Z,20.50
2018-07-12T21:30:55.304Z,17.67
2018-07-12T21:33:24.369Z,18.77
2018-07-12T21:35:53.366Z,12.67
2018-07-12T21:38:22.330Z,12.20
2018-07-12T21:40:51.313Z,14.13
2018-07-12T21:43:20.546Z,12.43
2018-07-12T21:45:49.237Z,9.73
2018-07-12T21:48:18.383Z,12.63
2018-07-12T21:50:47.344Z,15.67
2018-07-12T21:53:16.301Z,15.70
2018-07-12T21:55:45.370Z,13.27
2018-07-12T21:58:14.322Z,11.63
2018-07-12T22:00:43.255Z,12.50
2018-07-12T22:03:12.270Z,10.33
2018-07-12T22:05:41.211Z,13.47
2018-07-12T22:08:13.382Z,12.90
2018-07-12T22:10:43.288Z,11.03
2018-07-12T22:13:13.084Z,24.50
2018-07-12T22:15:42.101Z,13.83
2018-07-12T22:18:11.386Z,16.63
2018-07-12T22:20:40.566Z,11.93
2018-07-12T22:23:09.569Z,12.70
2018-07-12T22:25:38.609Z,9.60
2018-07-12T22:28:08.221Z,16.07
2018-07-12T22:30:37.321Z,11.93
2018-07-12T22:33:05.904Z,10.50
2018-07-12T22:35:34.668Z,11.07
2018-07-12T22:38:03.938Z,9.60
2018-07-12T22:40:33.125Z,12.87
2018-07-12T22:43:02.190Z,18.97
2018-07-12T22:45:31.168Z,17.53
2018-07-12T22:48:00.130Z,14.53
2018-07-12T22:50:29.061Z,16.00
2018-07-12T22:52:58.323Z,15.40
2018-07-12T22:55:27.302Z,18.23
2018-07-12T22:57:56.434Z,19.60
2018-07-12T23:00:25.420Z,24.90
2018-07-12T23:02:54.395Z,19.60
2018-07-12T23:05:23.341Z,16.87
2018-07-12T23:07:52.427Z,16.40
2018-07-12T23:10:21.738Z,18.37
2018-07-12T23:12:50.762Z,15.37
2018-07-12T23:15:19.707Z,13.63
2018-07-12T23:17:48.686Z,24.37
2018-07-12T23:20:17.626Z,18.73
2018-07-12T23:22:47.585Z,21.60
2018-07-12T23:25:16.541Z,20.63
2018-07-12T23:27:45.497Z,19.73
2018-07-12T23:30:14.473Z,18.33
2018-07-12T23:32:43.478Z,18.30
2018-07-12T23:35:12.405Z,22.00
2018-07-12T23:37:41.402Z,23.27
2018-07-12T23:40:10.363Z,22.80
2018-07-12T23:42:39.313Z,21.50
2018-07-12T23:45:08.402Z,18.20
2018-07-12T23:47:37.425Z,27.67
2018-07-12T23:50:06.415Z,17.90
2018-07-12T23:52:35.517Z,21.10
2018-07-12T23:55:04.511Z,23.07
2018-07-12T23:57:33.474Z,19.10
